Time;durP1;ratioP1;P1;durP2;ratioP2;P2;SDS_P1;SDS_P2;PMS_P1;PMS_P2;Temp;Humidity;BMP_temperature;BMP_pressure;BME280_temperature;BME280_humidity;BME280_pressure;Samples;Min_cycle;Max_cycle;Signal;HPM_P1;HPM_P2
2022/04/07 00:00:16;;;;;;;;;;;9.30;99.90;;;;;;5036230;28;19933;-48
2022/04/07 00:02:42;;;;;;;;;;;9.30;99.90;;;;;;5036111;28;20453;-46
2022/04/07 00:05:07;;;;;;;;;;;9.20;99.90;;;;;;5036076;28;20013;-51
2022/04/07 00:07:33;;;;;;;;;;;9.20;99.90;;;;;;5018119;28;19925;-46
2022/04/07 00:09:58;;;;;;;;;;;9.20;99.90;;;;;;5035658;28;19979;-49
2022/04/07 00:12:24;;;;;;;;;;;9.20;99.90;;;;;;5035715;28;19971;-52
2022/04/07 00:14:49;;;;;;;;;;;9.20;99.90;;;;;;5035848;28;19925;-50
2022/04/07 00:17:15;;;;;;;;;;;9.30;99.90;;;;;;5035888;28;19929;-47
2022/04/07 00:19:40;;;;;;;;;;;9.30;99.90;;;;;;5018201;28;19929;-50
2022/04/07 00:22:06;;;;;;;;;;;9.30;99.90;;;;;;5035631;28;19925;-47
2022/04/07 00:24:31;;;;;;;;;;;9.30;99.90;;;;;;5035611;28;19925;-49
2022/04/07 00:26:57;;;;;;;;;;;9.30;99.90;;;;;;5035357;28;19932;-48
2022/04/07 00:29:22;;;;;;;;;;;9.30;99.90;;;;;;5035433;28;19945;-52
2022/04/07 00:31:55;;;;;;;;;;;9.30;99.90;;;;;;5034763;28;20032;-47
2022/04/07 00:34:21;;;;;;;;;;;9.30;99.90;;;;;;5035462;28;19925;-50
2022/04/07 00:36:47;;;;;;;;;;;9.30;99.90;;;;;;5035455;28;19925;-47
2022/04/07 00:39:12;;;;;;;;;;;9.20;99.90;;;;;;5035362;28;20059;-50
2022/04/07 00:41:39;;;;;;;;;;;9.20;99.90;;;;;;5035271;28;20299;-47
2022/04/07 00:44:08;;;;;;;;;;;9.20;99.90;;;;;;5035107;28;20276;-51
2022/04/07 00:46:34;;;;;;;;;;;9.20;99.90;;;;;;5035378;28;20387;-47
2022/04/07 00:48:59;;;;;;;;;;;9.20;99.90;;;;;;5035255;28;19925;-52
2022/04/07 00:51:25;;;;;;;;;;;9.20;99.90;;;;;;5035118;28;19925;-51
2022/04/07 00:53:51;;;;;;;;;;;9.20;99.90;;;;;;5034969;28;19952;-48
2022/04/07 00:56:17;;;;;;;;;;;9.10;99.90;;;;;;5035010;28;19925;-48
2022/04/07 00:58:44;;;;;;;;;;;9.10;99.90;;;;;;5035205;28;19925;-50
2022/04/07 01:01:10;;;;;;;;;;;9.10;99.90;;;;;;5017126;28;19932;-47
2022/04/07 01:03:35;;;;;;;;;;;9.00;99.90;;;;;;5034984;28;20382;-46
2022/04/07 01:06:01;;;;;;;;;;;9.00;99.90;;;;;;5035227;28;19929;-47
2022/04/07 01:08:27;;;;;;;;;;;9.00;99.90;;;;;;5034558;28;19968;-50
2022/04/07 01:10:53;;;;;;;;;;;9.00;99.90;;;;;;5034740;28;19968;-50
2022/04/07 01:13:19;;;;;;;;;;;9.00;99.90;;;;;;5034665;28;19931;-47
2022/04/07 01:15:44;;;;;;;;;;;9.00;99.90;;;;;;5034769;28;20445;-48
2022/04/07 01:18:10;;;;;;;;;;;9.00;99.90;;;;;;5034711;28;19932;-48
2022/04/07 01:20:36;;;;;;;;;;;9.10;99.90;;;;;;5034596;28;19925;-48
2022/04/07 01:23:01;;;;;;;;;;;9.00;99.90;;;;;;5034592;28;20075;-46
2022/04/07 01:25:27;;;;;;;;;;;9.10;99.90;;;;;;5034421;28;20303;-47
2022/04/07 01:27:53;;;;;;;;;;;9.00;99.90;;;;;;5016918;28;19980;-47
2022/04/07 01:30:19;;;;;;;;;;;9.00;99.90;;;;;;5034414;28;20019;-48
2022/04/07 01:32:49;;;;;;;;;;;9.00;99.90;;;;;;5034429;28;19964;-47
2022/04/07 01:35:15;;;;;;;;;;;9.00;99.90;;;;;;5016208;28;20423;-48
2022/04/07 01:37:42;;;;;;;;;;;9.00;99.90;;;;;;5034240;28;19925;-49
2022/04/07 01:40:09;;;;;;;;;;;8.90;99.90;;;;;;5016718;28;20276;-51
2022/04/07 01:42:36;;;;;;;;;;;8.90;99.90;;;;;;5034159;28;19925;-49
2022/04/07 01:45:03;;;;;;;;;;;8.90;99.90;;;;;;5034184;28;19933;-50
2022/04/07 01:47:28;;;;;;;;;;;8.90;99.90;;;;;;5034027;28;20430;-49
2022/04/07 01:50:00;;;;;;;;;;;8.90;99.90;;;;;;5016255;28;20035;-50
2022/04/07 01:52:27;;;;;;;;;;;8.80;99.90;;;;;;5033894;28;19929;-49
2022/04/07 01:54:52;;;;;;;;;;;8.80;99.90;;;;;;5016138;28;20396;-48
2022/04/07 01:57:22;;;;;;;;;;;8.80;99.90;;;;;;5034032;28;19925;-52
2022/04/07 01:59:49;;;;;;;;;;;8.80;99.90;;;;;;5033794;28;19929;-50
2022/04/07 02:02:16;;;;;;;;;;;8.80;99.90;;;;;;5033084;28;22309;-48
2022/04/07 02:04:51;;;;;;;;;;;8.80;99.90;;;;;;5033751;28;19925;-52
2022/04/07 02:07:17;;;;;;;;;;;8.70;99.90;;;;;;5033634;28;20003;-51
2022/04/07 02:09:42;;;;;;;;;;;8.70;99.90;;;;;;5033425;28;19968;-46
2022/04/07 02:12:08;;;;;;;;;;;8.70;99.90;;;;;;5033791;28;19932;-49
2022/04/07 02:14:34;;;;;;;;;;;8.70;99.90;;;;;;5015870;28;19947;-47
2022/04/07 02:16:59;;;;;;;;;;;8.70;99.90;;;;;;5033599;28;20397;-49
2022/04/07 02:19:25;;;;;;;;;;;8.70;99.90;;;;;;5033408;28;20419;-48
2022/04/07 02:21:52;;;;;;;;;;;8.70;99.90;;;;;;5033303;28;19925;-52
2022/04/07 02:24:17;;;;;;;;;;;8.70;99.90;;;;;;5033598;28;20016;-50
2022/04/07 02:26:43;;;;;;;;;;;8.70;99.90;;;;;;5033472;28;20389;-49
2022/04/07 02:29:08;;;;;;;;;;;8.70;99.90;;;;;;5033437;28;19931;-47
2022/04/07 02:31:33;;;;;;;;;;;8.70;99.90;;;;;;5016052;28;19988;-49
2022/04/07 02:33:59;;;;;;;;;;;8.80;99.90;;;;;;5033221;28;20363;-50
2022/04/07 02:36:24;;;;;;;;;;;8.80;99.90;;;;;;5033175;28;19968;-48
2022/04/07 02:38:50;;;;;;;;;;;8.80;99.90;;;;;;5033550;28;19925;-49
2022/04/07 02:41:15;;;;;;;;;;;8.80;99.90;;;;;;5033349;28;20342;-47
2022/04/07 02:43:41;;;;;;;;;;;8.80;99.90;;;;;;5033208;28;19925;-51
2022/04/07 02:46:06;;;;;;;;;;;8.80;99.90;;;;;;5015690;28;19979;-51
2022/04/07 02:48:32;;;;;;;;;;;8.90;99.90;;;;;;5033238;28;19931;-49
2022/04/07 02:50:57;;;;;;;;;;;8.80;99.90;;;;;;5032957;28;19984;-47
2022/04/07 02:53:24;;;;;;;;;;;8.80;99.90;;;;;;5033136;28;19929;-50
2022/04/07 02:55:50;;;;;;;;;;;8.90;99.90;;;;;;5036994;28;20055;-52
2022/04/07 02:58:16;;;;;;;;;;;8.80;99.90;;;;;;5037125;28;19929;-48
2022/04/07 03:00:41;;;;;;;;;;;8.80;99.90;;;;;;5037189;28;19979;-50
2022/04/07 03:03:07;;;;;;;;;;;8.80;99.90;;;;;;5037154;28;19925;-51
2022/04/07 03:05:32;;;;;;;;;;;8.80;99.90;;;;;;5036909;28;19925;-50
2022/04/07 03:07:58;;;;;;;;;;;8.80;99.90;;;;;;5037172;28;19925;-48
2022/04/07 03:10:23;;;;;;;;;;;8.80;99.90;;;;;;5037227;28;20367;-49
2022/04/07 03:12:49;;;;;;;;;;;8.80;99.90;;;;;;5037101;28;19987;-48
2022/04/07 03:15:14;;;;;;;;;;;8.80;99.90;;;;;;5036817;28;19932;-48
2022/04/07 03:17:40;;;;;;;;;;;8.80;99.90;;;;;;5036834;28;19932;-51
2022/04/07 03:20:06;;;;;;;;;;;8.80;99.90;;;;;;5036758;28;19925;-49
2022/04/07 03:22:31;;;;;;;;;;;8.80;99.90;;;;;;5036912;28;19925;-49
2022/04/07 03:24:56;;;;;;;;;;;8.80;99.90;;;;;;5036986;28;19975;-49
2022/04/07 03:27:22;;;;;;;;;;;8.70;99.90;;;;;;5036852;28;19932;-50
2022/04/07 03:29:47;;;;;;;;;;;8.70;99.90;;;;;;5036698;28;20270;-47
2022/04/07 03:32:13;;;;;;;;;;;8.80;99.90;;;;;;5036618;28;19925;-48
2022/04/07 03:34:38;;;;;;;;;;;8.70;99.90;;;;;;5036892;28;19932;-49
2022/04/07 03:37:05;;;;;;;;;;;8.70;99.90;;;;;;5036636;28;20375;-47
2022/04/07 03:39:31;;;;;;;;;;;8.70;99.90;;;;;;5036525;28;19929;-47
2022/04/07 03:41:57;;;;;;;;;;;8.70;99.90;;;;;;5036537;28;20016;-49
2022/04/07 03:44:22;;;;;;;;;;;8.70;99.90;;;;;;5036341;28;20438;-47
2022/04/07 03:46:48;;;;;;;;;;;8.70;99.90;;;;;;5036915;28;19925;-49
2022/04/07 03:49:13;;;;;;;;;;;8.70;99.90;;;;;;5036207;28;19994;-48
2022/04/07 03:51:39;;;;;;;;;;;8.70;99.90;;;;;;5018427;28;19968;-48
2022/04/07 03:54:04;;;;;;;;;;;8.70;99.90;;;;;;5036295;28;19932;-52
2022/04/07 03:56:30;;;;;;;;;;;8.70;99.90;;;;;;5036255;28;20283;-50
2022/04/07 03:58:56;;;;;;;;;;;8.60;99.90;;;;;;5036052;28;19925;-48
2022/04/07 04:01:21;;;;;;;;;;;8.60;99.90;;;;;;5018332;28;20011;-50
2022/04/07 04:03:47;;;;;;;;;;;8.60;99.90;;;;;;5035936;28;19978;-51
2022/04/07 04:06:12;;;;;;;;;;;8.50;99.90;;;;;;5034786;28;19929;-50
2022/04/07 04:08:37;;;;;;;;;;;8.50;99.90;;;;;;5035987;28;19925;-49
2022/04/07 04:11:03;;;;;;;;;;;8.60;99.90;;;;;;5035992;28;19950;-49
2022/04/07 04:13:29;;;;;;;;;;;8.50;99.90;;;;;;5035690;28;20470;-49
2022/04/07 04:15:55;;;;;;;;;;;8.50;99.90;;;;;;5035670;28;19925;-48
2022/04/07 04:18:21;;;;;;;;;;;8.50;99.90;;;;;;5035581;28;19931;-49
2022/04/07 04:20:46;;;;;;;;;;;8.50;99.90;;;;;;5035567;28;20016;-47
2022/04/07 04:23:12;;;;;;;;;;;8.50;99.90;;;;;;5035770;28;19931;-49
2022/04/07 04:25:37;;;;;;;;;;;8.50;99.90;;;;;;5035634;28;19931;-49
2022/04/07 04:28:03;;;;;;;;;;;8.60;99.90;;;;;;5035553;28;19925;-47
2022/04/07 04:30:30;;;;;;;;;;;8.60;99.90;;;;;;5035430;28;20020;-49
2022/04/07 04:32:55;;;;;;;;;;;8.60;99.90;;;;;;5035418;28;20383;-51
2022/04/07 04:35:21;;;;;;;;;;;8.60;99.90;;;;;;5035644;28;19931;-49
2022/04/07 04:37:46;;;;;;;;;;;8.60;99.90;;;;;;5017559;28;20379;-48
2022/04/07 04:40:12;;;;;;;;;;;8.60;99.90;;;;;;5035381;28;19925;-48
2022/04/07 04:42:40;;;;;;;;;;;8.60;99.90;;;;;;5035318;28;19944;-47
2022/04/07 04:45:07;;;;;;;;;;;8.60;99.90;;;;;;5035253;28;19929;-50
2022/04/07 04:47:32;;;;;;;;;;;8.50;99.90;;;;;;5035077;28;19925;-49
2022/04/07 04:49:58;;;;;;;;;;;8.60;99.90;;;;;;5035265;28;19932;-48
2022/04/07 04:52:23;;;;;;;;;;;8.60;99.90;;;;;;5035018;28;19925;-48
2022/04/07 04:54:49;;;;;;;;;;;8.60;99.90;;;;;;5035036;28;19932;-47
2022/04/07 04:57:14;;;;;;;;;;;8.50;99.90;;;;;;5034986;28;20011;-48
2022/04/07 04:59:40;;;;;;;;;;;8.60;99.90;;;;;;5034979;28;19932;-49
2022/04/07 05:02:05;;;;;;;;;;;8.60;99.90;;;;;;5034807;28;19987;-47
2022/04/07 05:04:31;;;;;;;;;;;8.60;99.90;;;;;;5017458;28;19979;-47
2022/04/07 05:06:57;;;;;;;;;;;8.60;99.90;;;;;;5034886;28;19925;-47
2022/04/07 05:09:23;;;;;;;;;;;8.60;99.90;;;;;;5034791;28;19987;-52
2022/04/07 05:11:48;;;;;;;;;;;8.70;99.90;;;;;;5034737;28;20032;-50
2022/04/07 05:14:14;;;;;;;;;;;8.70;99.90;;;;;;5034709;28;19925;-49
2022/04/07 05:16:39;;;;;;;;;;;8.70;99.90;;;;;;5034189;28;19925;-47
2022/04/07 05:19:05;;;;;;;;;;;8.70;99.90;;;;;;5034694;28;19932;-47
2022/04/07 05:21:30;;;;;;;;;;;8.70;99.90;;;;;;5000831;28;19929;-49
2022/04/07 05:23:55;;;;;;;;;;;8.70;99.90;;;;;;5034425;28;20422;-50
2022/04/07 05:26:21;;;;;;;;;;;8.70;99.90;;;;;;5034617;28;19929;-48
2022/04/07 05:28:46;;;;;;;;;;;8.70;99.90;;;;;;5016682;28;19976;-48
2022/04/07 05:31:12;;;;;;;;;;;8.70;99.90;;;;;;5034277;28;19925;-51
2022/04/07 05:33:37;;;;;;;;;;;8.70;99.90;;;;;;5033125;28;19965;-52
2022/04/07 05:36:03;;;;;;;;;;;8.70;99.90;;;;;;5034439;28;19929;-50
2022/04/07 05:38:29;;;;;;;;;;;8.70;99.90;;;;;;5034505;28;19925;-48
2022/04/07 05:40:54;;;;;;;;;;;8.70;99.90;;;;;;5034384;28;20383;-48
2022/04/07 05:43:20;;;;;;;;;;;8.70;99.90;;;;;;5034064;28;19979;-48
2022/04/07 05:45:45;;;;;;;;;;;8.70;99.90;;;;;;5034001;28;19979;-49
2022/04/07 05:48:12;;;;;;;;;;;8.70;99.90;;;;;;5016393;28;19925;-52
2022/04/07 05:50:37;;;;;;;;;;;8.80;99.90;;;;;;5034333;28;20043;-49
2022/04/07 05:53:03;;;;;;;;;;;8.80;99.90;;;;;;5034095;28;20028;-48
2022/04/07 05:55:28;;;;;;;;;;;8.80;99.90;;;;;;5034014;28;20379;-50
2022/04/07 05:57:54;;;;;;;;;;;8.80;99.90;;;;;;5033818;28;19925;-52
2022/04/07 06:00:20;;;;;;;;;;;8.80;99.90;;;;;;5033743;28;19972;-47
2022/04/07 06:02:46;;;;;;;;;;;8.80;99.90;;;;;;5034092;28;19968;-51
2022/04/07 06:05:14;;;;;;;;;;;8.80;99.90;;;;;;5033941;28;20008;-48
2022/04/07 06:07:40;;;;;;;;;;;8.90;99.90;;;;;;5033935;28;19925;-50
2022/04/07 06:10:06;;;;;;;;;;;8.90;99.90;;;;;;5026785;28;20398;-48
2022/04/07 06:12:31;;;;;;;;;;;8.80;99.90;;;;;;5032491;28;19925;-49
2022/04/07 06:14:57;;;;;;;;;;;8.90;99.90;;;;;;5033675;28;19946;-50
2022/04/07 06:17:35;;;;;;;;;;;8.80;99.90;;;;;;5033776;28;19925;-52
2022/04/07 06:20:01;;;;;;;;;;;7.70;99.90;;;;;;5033735;28;19932;-50
2022/04/07 06:22:26;;;;;;;;;;;6.90;99.90;;;;;;5033498;28;20299;-50
2022/04/07 06:24:52;;;;;;;;;;;6.50;99.90;;;;;;5033590;28;19925;-47
2022/04/07 06:27:17;;;;;;;;;;;6.20;99.90;;;;;;5033586;28;19925;-50
2022/04/07 06:29:43;;;;;;;;;;;6.10;99.90;;;;;;5032689;28;19925;-52
2022/04/07 06:32:08;;;;;;;;;;;6.00;99.90;;;;;;5033482;28;20009;-49
2022/04/07 06:34:34;;;;;;;;;;;5.90;99.90;;;;;;5033505;28;20338;-50
2022/04/07 06:37:00;;;;;;;;;;;5.90;99.90;;;;;;5032154;28;19925;-47
2022/04/07 06:39:26;;;;;;;;;;;5.80;99.90;;;;;;5032586;28;19925;-52
2022/04/07 06:41:51;;;;;;;;;;;5.90;99.90;;;;;;5033246;28;19924;-47
2022/04/07 06:44:19;;;;;;;;;;;5.90;99.90;;;;;;5033151;28;19925;-49
2022/04/07 06:46:45;;;;;;;;;;;5.90;99.90;;;;;;5033262;28;20403;-47
2022/04/07 06:49:10;;;;;;;;;;;5.80;99.90;;;;;;5033471;28;19925;-49
2022/04/07 06:51:35;;;;;;;;;;;5.90;99.90;;;;;;5033163;28;19929;-50
2022/04/07 06:54:01;;;;;;;;;;;5.80;99.90;;;;;;5033140;28;19929;-50
2022/04/07 06:56:26;;;;;;;;;;;5.80;99.90;;;;;;5031921;28;19933;-50
2022/04/07 06:58:53;;;;;;;;;;;5.80;99.90;;;;;;5032973;28;19925;-50
2022/04/07 07:01:18;;;;;;;;;;;5.70;99.90;;;;;;5033243;28;19963;-49
2022/04/07 07:03:43;;;;;;;;;;;5.70;99.90;;;;;;5033117;28;20500;-47
2022/04/07 07:06:09;;;;;;;;;;;5.70;99.90;;;;;;5033157;28;19972;-48
2022/04/07 07:08:34;;;;;;;;;;;5.60;99.90;;;;;;5015476;28;19926;-48
2022/04/07 07:11:00;;;;;;;;;;;5.60;99.90;;;;;;5015727;28;19975;-51
2022/04/07 07:13:25;;;;;;;;;;;5.60;99.90;;;;;;5032947;28;19932;-47
2022/04/07 07:15:51;;;;;;;;;;;5.60;99.90;;;;;;5033190;28;20015;-48
2022/04/07 07:18:17;;;;;;;;;;;5.60;99.90;;;;;;5032954;28;19929;-49
2022/04/07 07:20:43;;;;;;;;;;;;;;;;;;5032998;28;20276;-48
2022/04/07 07:23:08;;;;;;;;;;;5.40;99.90;;;;;;5032789;28;19977;-49
2022/04/07 07:25:34;;;;;;;;;;;5.30;99.90;;;;;;5032846;28;19948;-50
2022/04/07 07:28:00;;;;;;;;;;;5.20;99.90;;;;;;5032901;28;19951;-51
2022/04/07 07:30:26;;;;;;;;;;;;;;;;;;5032978;28;20299;-50
2022/04/07 07:32:54;;;;;;;;;;;5.20;99.90;;;;;;5032989;28;20276;-48
2022/04/07 07:35:20;;;;;;;;;;;5.10;99.90;;;;;;5032795;28;19925;-49
2022/04/07 07:37:49;;;;;;;;;;;5.20;99.90;;;;;;5032885;28;19971;-48
2022/04/07 07:40:15;;;;;;;;;;;5.20;99.90;;;;;;5033706;28;19929;-50
2022/04/07 07:42:42;;;;;;;;;;;5.10;99.90;;;;;;5036319;28;20441;-48
2022/04/07 07:45:07;;;;;;;;;;;5.10;99.90;;;;;;5036511;28;20019;-49
2022/04/07 07:47:33;;;;;;;;;;;5.10;99.90;;;;;;5036525;28;20012;-48
2022/04/07 07:49:59;;;;;;;;;;;5.10;99.90;;;;;;5036591;28;19925;-50
2022/04/07 07:52:24;;;;;;;;;;;5.10;99.90;;;;;;5036228;28;19925;-47
2022/04/07 07:54:50;;;;;;;;;;;5.10;99.90;;;;;;5036207;28;19932;-50
2022/04/07 07:57:15;;;;;;;;;;;5.10;99.90;;;;;;5036031;28;19925;-48
2022/04/07 07:59:41;;;;;;;;;;;5.10;99.90;;;;;;5018375;28;20342;-47
2022/04/07 08:02:06;;;;;;;;;;;5.20;99.90;;;;;;5036285;28;19925;-52
2022/04/07 08:04:32;;;;;;;;;;;5.20;99.90;;;;;;5036152;28;19925;-51
2022/04/07 08:06:58;;;;;;;;;;;5.20;99.90;;;;;;5018294;28;19925;-47
2022/04/07 08:09:23;;;;;;;;;;;5.20;99.90;;;;;;5036120;28;19931;-47
2022/04/07 08:11:49;;;;;;;;;;;5.20;99.90;;;;;;5001756;28;19929;-50
2022/04/07 08:14:14;;;;;;;;;;;5.20;99.90;;;;;;5036067;28;19972;-49
2022/04/07 08:16:40;;;;;;;;;;;5.30;99.90;;;;;;5035748;28;19932;-47
2022/04/07 08:19:05;;;;;;;;;;;5.30;99.90;;;;;;5035906;28;19925;-48
2022/04/07 08:21:31;;;;;;;;;;;5.30;99.90;;;;;;5035964;28;19968;-49
2022/04/07 08:23:57;;;;;;;;;;;5.30;99.90;;;;;;5035754;28;19933;-47
2022/04/07 08:26:22;;;;;;;;;;;5.40;99.90;;;;;;5035691;28;19925;-49
2022/04/07 08:28:48;;;;;;;;;;;5.40;99.90;;;;;;5035687;28;19950;-47
2022/04/07 08:31:13;;;;;;;;;;;5.40;99.90;;;;;;5035672;28;19928;-47
2022/04/07 08:33:38;;;;;;;;;;;5.40;99.90;;;;;;5017757;28;19976;-47
2022/04/07 08:36:04;;;;;;;;;;;5.50;99.90;;;;;;5035519;28;19925;-47
2022/04/07 08:38:30;;;;;;;;;;;5.50;99.90;;;;;;5035479;28;19925;-47
2022/04/07 08:40:55;;;;;;;;;;;5.50;99.90;;;;;;5035298;28;19925;-47
2022/04/07 08:43:22;;;;;;;;;;;5.50;99.90;;;;;;5035342;28;19932;-51
2022/04/07 08:45:48;;;;;;;;;;;5.60;99.90;;;;;;5035287;28;20379;-50
2022/04/07 08:48:14;;;;;;;;;;;5.80;99.90;;;;;;5035284;28;19925;-48
2022/04/07 08:50:40;;;;;;;;;;;6.00;99.90;;;;;;5035275;28;19931;-48
2022/04/07 08:53:06;;;;;;;;;;;6.10;99.90;;;;;;5034263;28;20337;-49
2022/04/07 08:55:32;;;;;;;;;;;6.20;99.90;;;;;;5033896;28;19925;-47
2022/04/07 08:57:58;;;;;;;;;;;6.20;99.90;;;;;;5035213;28;19967;-51
2022/04/07 09:00:23;;;;;;;;;;;6.20;99.90;;;;;;5035083;28;20279;-48
2022/04/07 09:02:49;;;;;;;;;;;6.30;99.90;;;;;;5035075;28;19925;-52
2022/04/07 09:05:14;;;;;;;;;;;6.80;99.90;;;;;;5035379;28;19925;-51
2022/04/07 09:07:40;;;;;;;;;;;7.10;99.90;;;;;;5035107;28;19925;-48
2022/04/07 09:10:05;;;;;;;;;;;7.30;99.90;;;;;;5034540;28;19925;-49
2022/04/07 09:12:33;;;;;;;;;;;7.70;99.90;;;;;;5034714;28;20008;-52
2022/04/07 09:14:59;;;;;;;;;;;7.90;99.90;;;;;;5016889;28;19925;-52
2022/04/07 09:17:26;;;;;;;;;;;8.00;99.90;;;;;;5034797;28;19932;-49
2022/04/07 09:19:52;;;;;;;;;;;8.20;99.90;;;;;;5017302;28;19932;-50
2022/04/07 09:22:17;;;;;;;;;;;8.30;99.90;;;;;;5035126;28;19925;-51
2022/04/07 09:24:43;;;;;;;;;;;8.50;99.90;;;;;;5034834;28;19925;-52
2022/04/07 09:27:10;;;;;;;;;;;8.60;99.90;;;;;;5034603;28;20341;-50
2022/04/07 09:29:36;;;;;;;;;;;8.70;99.90;;;;;;5016896;28;20492;-48
2022/04/07 09:32:02;;;;;;;;;;;8.80;99.90;;;;;;5016728;28;19936;-53
2022/04/07 09:34:31;;;;;;;;;;;8.90;99.90;;;;;;5034347;28;20298;-47
2022/04/07 09:37:03;;;;;;;;;;;9.10;99.90;;;;;;5034390;28;19983;-50
2022/04/07 09:39:28;;;;;;;;;;;9.20;99.90;;;;;;5034391;28;20385;-51
2022/04/07 09:41:54;;;;;;;;;;;9.30;99.90;;;;;;5034829;28;19925;-49
2022/04/07 09:44:22;;;;;;;;;;;9.60;99.90;;;;;;5034366;28;20398;-52
2022/04/07 09:46:48;;;;;;;;;;;9.80;99.90;;;;;;5016543;28;20423;-51
2022/04/07 09:49:14;;;;;;;;;;;9.90;99.90;;;;;;5034139;28;20039;-51
2022/04/07 09:51:40;;;;;;;;;;;9.90;99.90;;;;;;5016432;28;19925;-50
2022/04/07 09:54:07;;;;;;;;;;;10.00;99.90;;;;;;5034066;28;20316;-51
2022/04/07 09:56:33;;;;;;;;;;;10.10;99.90;;;;;;5034100;28;19925;-48
2022/04/07 09:58:59;;;;;;;;;;;10.00;99.90;;;;;;5034050;28;19928;-47
2022/04/07 10:01:24;;;;;;;;;;;10.00;99.90;;;;;;5016168;28;19932;-49
2022/04/07 10:03:51;;;;;;;;;;;10.10;99.90;;;;;;5033826;28;19925;-50
2022/04/07 10:06:17;;;;;;;;;;;10.30;99.90;;;;;;5033739;28;19999;-48
2022/04/07 10:08:42;;;;;;;;;;;10.50;99.90;;;;;;5033892;28;20279;-50
2022/04/07 10:11:08;;;;;;;;;;;10.60;99.90;;;;;;5033868;28;19921;-50
2022/04/07 10:13:36;;;;;;;;;;;10.80;99.90;;;;;;5033685;28;19925;-52
2022/04/07 10:16:03;;;;;;;;;;;10.90;99.90;;;;;;5033693;28;19936;-51
2022/04/07 10:18:31;;;;;;;;;;;10.80;99.90;;;;;;5033581;28;19932;-48
2022/04/07 10:20:58;;;;;;;;;;;10.60;99.90;;;;;;5033601;28;19968;-53
2022/04/07 10:23:42;;;;;;;;;;;10.80;99.90;;;;;;5033758;28;19986;-53
2022/04/07 10:26:08;;;;;;;;;;;10.90;99.90;;;;;;5033704;28;19925;-51
2022/04/07 10:28:34;;;;;;;;;;;11.00;99.90;;;;;;5033675;28;19972;-49
2022/04/07 10:31:10;;;;;;;;;;;11.00;99.90;;;;;;5033502;28;19964;-52
2022/04/07 10:33:42;;;;;;;;;;;10.90;99.90;;;;;;5015953;28;19925;-52
2022/04/07 10:36:09;;;;;;;;;;;11.30;99.90;;;;;;5016115;28;19965;-50
2022/04/07 10:38:35;;;;;;;;;;;11.60;99.90;;;;;;5033488;28;19925;-50
2022/04/07 10:41:01;;;;;;;;;;;11.50;99.90;;;;;;5033347;28;19932;-50
2022/04/07 10:43:27;;;;;;;;;;;11.30;99.90;;;;;;5033294;28;19925;-49
2022/04/07 10:46:05;;;;;;;;;;;11.00;99.90;;;;;;5033319;28;19926;-48
2022/04/07 10:48:35;;;;;;;;;;;11.20;99.90;;;;;;5033201;28;19975;-51
2022/04/07 10:51:02;;;;;;;;;;;10.90;99.90;;;;;;5033517;28;19932;-48
2022/04/07 10:53:32;;;;;;;;;;;10.90;99.90;;;;;;5033220;28;20299;-51
2022/04/07 10:56:01;;;;;;;;;;;10.80;99.90;;;;;;5033409;28;19926;-50
2022/04/07 10:58:37;;;;;;;;;;;10.90;99.90;;;;;;5033198;28;19925;-50
2022/04/07 11:01:02;;;;;;;;;;;11.00;99.90;;;;;;5033298;28;19941;-50
2022/04/07 11:03:28;;;;;;;;;;;11.20;99.90;;;;;;5033524;28;20027;-50
2022/04/07 11:05:54;;;;;;;;;;;;;;;;;;5033556;28;20278;-50
2022/04/07 11:08:22;;;;;;;;;;;11.30;99.90;;;;;;5033390;28;19925;-52
2022/04/07 11:10:48;;;;;;;;;;;11.30;99.90;;;;;;5033069;28;20379;-53
2022/04/07 11:13:14;;;;;;;;;;;11.60;99.90;;;;;;5033180;28;19929;-53
2022/04/07 11:15:43;;;;;;;;;;;11.60;99.90;;;;;;5034595;28;20272;-52
2022/04/07 11:18:18;;;;;;;;;;;12.00;99.90;;;;;;5037108;28;19971;-48
2022/04/07 11:21:07;;;;;;;;;;;12.20;99.90;;;;;;5036977;28;19925;-49
2022/04/07 11:23:40;;;;;;;;;;;11.90;99.90;;;;;;5037305;28;19984;-50
2022/04/07 11:26:12;;;;;;;;;;;11.60;99.90;;;;;;5036919;28;19925;-51
2022/04/07 11:28:38;;;;;;;;;;;11.30;99.90;;;;;;5036789;28;19925;-49
2022/04/07 11:31:07;;;;;;;;;;;10.90;99.90;;;;;;5036793;28;19971;-51
2022/04/07 11:33:36;;;;;;;;;;;10.50;99.90;;;;;;5036618;28;20299;-51
2022/04/07 11:36:07;;;;;;;;;;;10.60;99.90;;;;;;5036431;28;19932;-47
2022/04/07 11:38:33;;;;;;;;;;;10.30;99.90;;;;;;5036779;28;19925;-50
2022/04/07 11:41:03;;;;;;;;;;;10.20;99.90;;;;;;5036659;28;19925;-48
2022/04/07 11:43:28;;;;;;;;;;;10.40;99.90;;;;;;5036357;28;20335;-51
2022/04/07 11:45:54;;;;;;;;;;;10.50;99.90;;;;;;5036537;28;19925;-48
2022/04/07 11:48:20;;;;;;;;;;;10.90;99.90;;;;;;5036312;28;19925;-47
2022/04/07 11:50:45;;;;;;;;;;;11.00;99.90;;;;;;5036597;28;20283;-49
2022/04/07 11:53:11;;;;;;;;;;;11.20;99.90;;;;;;5036332;28;20291;-48
2022/04/07 11:55:36;;;;;;;;;;;11.50;99.90;;;;;;5036195;28;19971;-48
2022/04/07 11:58:02;;;;;;;;;;;11.60;99.90;;;;;;5018513;28;19936;-48
2022/04/07 12:00:31;;;;;;;;;;;11.50;99.90;;;;;;5036143;28;19926;-52
2022/04/07 12:02:58;;;;;;;;;;;11.40;99.90;;;;;;5036352;28;19925;-50
2022/04/07 12:05:23;;;;;;;;;;;11.30;99.90;;;;;;5036206;28;19925;-50
2022/04/07 12:07:49;;;;;;;;;;;11.30;99.90;;;;;;5018455;28;19925;-50
2022/04/07 12:10:15;;;;;;;;;;;11.20;99.90;;;;;;5035895;28;20303;-49
2022/04/07 12:12:41;;;;;;;;;;;11.40;99.90;;;;;;5035898;28;19925;-53
2022/04/07 12:15:07;;;;;;;;;;;11.70;99.90;;;;;;5035844;28;19925;-48
2022/04/07 12:17:33;;;;;;;;;;;11.60;99.90;;;;;;5035700;28;19948;-48
2022/04/07 12:19:58;;;;;;;;;;;11.80;99.90;;;;;;5035704;28;20280;-49
2022/04/07 12:22:28;;;;;;;;;;;12.30;99.90;;;;;;5036096;28;19931;-52
2022/04/07 12:25:04;;;;;;;;;;;12.40;99.90;;;;;;5018193;28;20276;-51
2022/04/07 12:27:31;;;;;;;;;;;12.30;99.90;;;;;;5034556;28;20338;-52
2022/04/07 12:29:58;;;;;;;;;;;12.00;99.90;;;;;;5035550;28;19925;-48
2022/04/07 12:32:23;;;;;;;;;;;11.80;99.90;;;;;;5035687;28;19975;-50
2022/04/07 12:34:49;;;;;;;;;;;11.70;99.90;;;;;;5035644;28;19964;-50
2022/04/07 12:37:26;;;;;;;;;;;11.30;99.90;;;;;;5035832;28;20043;-51
2022/04/07 12:39:51;;;;;;;;;;;11.20;99.90;;;;;;5035562;28;19925;-49
2022/04/07 12:42:17;;;;;;;;;;;11.20;99.90;;;;;;5035983;28;19926;-50
2022/04/07 12:44:45;;;;;;;;;;;11.60;99.90;;;;;;5001260;28;20422;-49
2022/04/07 12:47:17;;;;;;;;;;;11.90;99.90;;;;;;5035329;28;20398;-48
2022/04/07 12:49:55;;;;;;;;;;;11.90;99.90;;;;;;5035310;28;19972;-50
2022/04/07 12:52:32;;;;;;;;;;;11.70;99.90;;;;;;5035096;28;19969;-51
2022/04/07 12:55:02;;;;;;;;;;;11.50;99.90;;;;;;5035156;28;19925;-52
2022/04/07 12:57:32;;;;;;;;;;;11.50;99.90;;;;;;5035346;28;19925;-48
2022/04/07 12:59:58;;;;;;;;;;;11.30;99.90;;;;;;5034969;28;19971;-50
2022/04/07 13:02:24;;;;;;;;;;;11.50;99.90;;;;;;5035098;28;19932;-50
2022/04/07 13:04:51;;;;;;;;;;;11.80;99.90;;;;;;5034936;28;20532;-48
2022/04/07 13:07:17;;;;;;;;;;;11.80;99.90;;;;;;5034881;28;20391;-50
2022/04/07 13:09:43;;;;;;;;;;;11.60;99.90;;;;;;5024639;28;20393;-50
2022/04/07 13:12:13;;;;;;;;;;;11.40;99.90;;;;;;5035153;28;19925;-48
2022/04/07 13:14:40;;;;;;;;;;;11.60;99.90;;;;;;5034988;28;19925;-48
2022/04/07 13:17:05;;;;;;;;;;;11.90;99.90;;;;;;5034901;28;19932;-49
2022/04/07 13:19:32;;;;;;;;;;;12.20;99.90;;;;;;5034796;28;20302;-52
2022/04/07 13:21:58;;;;;;;;;;;12.30;99.90;;;;;;5034633;28;19932;-52
2022/04/07 13:24:23;;;;;;;;;;;12.10;99.90;;;;;;5034428;28;20342;-48
2022/04/07 13:26:49;;;;;;;;;;;11.90;99.90;;;;;;5034716;28;19978;-48
2022/04/07 13:29:16;;;;;;;;;;;11.60;99.90;;;;;;5034644;28;19951;-48
2022/04/07 13:31:41;;;;;;;;;;;11.60;99.90;;;;;;5034516;28;19925;-49
2022/04/07 13:34:07;;;;;;;;;;;11.40;99.90;;;;;;5034313;28;19925;-50
2022/04/07 13:36:34;;;;;;;;;;;11.30;99.90;;;;;;5034383;28;19925;-50
2022/04/07 13:38:59;;;;;;;;;;;11.10;99.90;;;;;;5034160;28;19929;-50
2022/04/07 13:41:26;;;;;;;;;;;10.90;99.90;;;;;;5033265;28;20012;-50
2022/04/07 13:43:52;;;;;;;;;;;10.80;99.90;;;;;;5034321;28;19932;-52
2022/04/07 13:46:17;;;;;;;;;;;10.20;99.90;;;;;;5034543;28;19925;-51
2022/04/07 13:48:43;;;;;;;;;;;9.60;99.90;;;;;;5034097;28;19924;-50
2022/04/07 13:51:08;;;;;;;;;;;9.20;99.90;;;;;;5033921;28;19926;-50
2022/04/07 13:53:34;;;;;;;;;;;8.80;99.90;;;;;;5034062;28;20410;-50
2022/04/07 13:55:59;;;;;;;;;;;8.10;99.90;;;;;;5033878;28;19944;-50
2022/04/07 13:58:25;;;;;;;;;;;7.70;99.90;;;;;;5034075;28;19925;-49
2022/04/07 14:00:50;;;;;;;;;;;7.40;99.90;;;;;;5033889;28;19975;-52
2022/04/07 14:03:16;;;;;;;;;;;;;;;;;;5033978;28;19948;-49
2022/04/07 14:05:42;;;;;;;;;;;7.30;99.90;;;;;;5033736;28;19931;-52
2022/04/07 14:08:13;;;;;;;;;;;7.20;99.90;;;;;;5049111;28;19929;-49
2022/04/07 14:10:39;;;;;;;;;;;6.80;99.90;;;;;;5033589;28;19925;-48
2022/04/07 14:13:05;;;;;;;;;;;6.70;99.90;;;;;;5034069;28;20402;-51
2022/04/07 14:15:31;;;;;;;;;;;6.90;99.90;;;;;;5033674;28;19968;-50
2022/04/07 14:17:56;;;;;;;;;;;7.20;99.90;;;;;;5016026;28;19958;-52
2022/04/07 14:20:23;;;;;;;;;;;7.40;99.90;;;;;;5033582;28;19948;-48
2022/04/07 14:22:48;;;;;;;;;;;7.70;99.90;;;;;;5033818;28;19932;-49